Terminal Aerodrome Forecast
Issued by NWS

Home | Current Version | Previous Version | Text Only | Print | Product List | Glossary On
Versions: 1 2 3 4 5 6 7 8 9 10 11 12 13 14 15 16 17 18 19 20 21 22 23 24
000
FTUS43 KDLH 280523
TAFHYR
TAF
KHYR 280523Z 2806/2906 16007KT P6SM SKC WS020/20030KT
     FM281100 17009KT P6SM VCSH SCT040 BKN080 WS020/20035KT
     FM281300 17010KT 5SM -SHRA BR VCTS BKN015 OVC050CB
     FM281700 16010KT 4SM -SHRA VCTS BKN008 OVC025CB
     FM282200 17005KT 4SM -SHRA OVC008
     FM290100 20005KT P6SM VCSH OVC008
     FM290300 23004KT P6SM OVC008=

USA.gov is the U.S. government's official web portal to all federal, state and local government web resources and services.